Time;durP1;ratioP1;P1;durP2;ratioP2;P2;SDS_P1;SDS_P2;PMS_P1;PMS_P2;Temp;Humidity;BMP_temperature;BMP_pressure;BME280_temperature;BME280_humidity;BME280_pressure;Samples;Min_cycle;Max_cycle;Signal;HPM_P1;HPM_P2
2023/06/23 00:00:13;;;;;;;9.90;6.45;;;;;;;17.90;82.61;96732.53;5052433;28;20481;-70
2023/06/23 00:02:42;;;;;;;7.63;6.15;;;;;;;17.92;82.27;96732.44;5055263;28;20045;-70
2023/06/23 00:05:10;;;;;;;7.13;6.43;;;;;;;17.82;81.84;96737.44;5056594;28;20049;-70
2023/06/23 00:07:39;;;;;;;10.70;7.22;;;;;;;17.61;83.01;96734.41;5056257;28;20102;-70
2023/06/23 00:10:10;;;;;;;9.90;7.10;;;;;;;17.55;83.49;96736.47;5056285;28;20132;-70
2023/06/23 00:12:41;;;;;;;9.15;6.82;;;;;;;17.55;83.66;96739.13;5056410;28;20124;-70
2023/06/23 00:15:09;;;;;;;11.85;6.78;;;;;;;17.55;83.64;96738.28;5056294;28;20103;-70
2023/06/23 00:17:37;;;;;;;7.40;6.70;;;;;;;17.53;83.78;96732.25;5056265;28;20052;-70
2023/06/23 00:20:09;;;;;;;7.25;6.55;;;;;;;17.53;83.69;96726.94;5056202;28;20055;-69
2023/06/23 00:22:38;;;;;;;8.70;7.05;;;;;;;17.57;83.46;96724.97;5056188;28;20053;-70
2023/06/23 00:25:05;;;;;;;7.07;6.35;;;;;;;17.57;83.26;96731.09;5055961;28;20063;-70
2023/06/23 00:27:34;;;;;;;12.52;6.70;;;;;;;17.56;83.06;96732.06;5056004;28;20502;-70
2023/06/23 00:30:01;;;;;;;7.32;6.40;;;;;;;17.57;82.59;96735.56;5055925;28;20053;-69
2023/06/23 00:32:28;;;;;;;7.90;7.10;;;;;;;17.57;82.53;96728.44;5055815;28;20088;-70
2023/06/23 00:34:55;;;;;;;8.77;6.60;;;;;;;17.57;82.32;96727.63;5056003;28;20131;-70
2023/06/23 00:37:24;;;;;;;8.20;6.75;;;;;;;17.55;82.43;96723.25;5055849;28;20140;-70
2023/06/23 00:39:52;;;;;;;6.00;5.45;;;;;;;17.57;82.33;96723.16;5055752;28;20049;-70
2023/06/23 00:42:19;;;;;;;7.13;6.50;;;;;;;17.50;82.21;96714.78;5055863;28;20052;-70
2023/06/23 00:44:46;;;;;;;6.35;5.75;;;;;;;17.44;82.41;96712.53;5055702;28;20057;-70
2023/06/23 00:47:14;;;;;;;7.15;6.45;;;;;;;17.35;82.78;96718.38;5055759;28;20053;-70
2023/06/23 00:49:42;;;;;;;9.20;6.63;;;;;;;17.28;83.10;96726.69;5055869;28;20044;-70
2023/06/23 00:52:11;;;;;;;11.88;7.22;;;;;;;17.32;83.14;96721.22;5055492;28;20160;-70
2023/06/23 00:54:40;;;;;;;7.82;5.90;;;;;;;17.30;82.86;96716.03;5055567;28;20045;-70
2023/06/23 00:57:07;;;;;;;9.15;6.90;;;;;;;17.27;83.19;96719.72;5055408;28;20376;-69
2023/06/23 00:59:34;;;;;;;9.63;6.80;;;;;;;17.26;83.09;96715.38;5055291;28;20513;-70
2023/06/23 01:02:03;;;;;;;9.68;6.93;;;;;;;17.19;83.13;96711.44;5055149;28;20049;-69
2023/06/23 01:04:33;;;;;;;7.18;6.30;;;;;;;17.24;83.17;96719.91;5055278;28;20132;-69
2023/06/23 01:07:15;;;;;;;9.15;7.00;;;;;;;17.27;83.18;96713.56;5055291;28;20517;-70
2023/06/23 01:09:50;;;;;;;9.18;6.60;;;;;;;17.26;82.56;96718.03;5055182;28;20077;-69
2023/06/23 01:12:26;;;;;;;10.88;5.57;;;;;;;17.24;82.60;96722.53;5055101;28;20126;-69
2023/06/23 01:15:00;;;;;;;9.43;6.63;;;;;;;17.20;82.36;96712.25;5054330;28;20057;-69
2023/06/23 01:17:33;;;;;;;7.53;6.53;;;;;;;17.21;82.50;96709.53;5055126;28;20088;-70
2023/06/23 01:20:16;;;;;;;12.55;6.85;;;;;;;17.20;82.54;96710.47;5055046;28;20415;-70
2023/06/23 01:22:51;;;;;;;12.57;6.80;;;;;;;17.18;82.40;96717.63;5055110;28;20048;-70
2023/06/23 01:25:31;;;;;;;7.97;7.18;;;;;;;17.15;82.46;96709.91;5055004;28;20049;-69
2023/06/23 01:28:17;;;;;;;7.88;7.00;;;;;;;17.15;82.56;96716.03;5055204;28;20055;-70
2023/06/23 01:30:53;;;;;;;13.43;7.53;;;;;;;17.12;82.57;96716.22;5054970;28;20056;-70
2023/06/23 01:33:23;;;;;;;7.82;6.90;;;;;;;17.12;82.57;96718.88;5054919;28;20052;-70
2023/06/23 01:36:02;;;;;;;9.73;7.63;;;;;;;17.14;82.73;96726.72;5054828;28;20055;-70
2023/06/23 01:38:36;;;;;;;10.43;7.57;;;;;;;17.13;83.11;96727.66;5054525;28;20132;-70
2023/06/23 01:41:10;;;;;;;9.95;7.07;;;;;;;17.11;82.53;96717.19;5054609;28;20056;-70
2023/06/23 01:43:38;;;;;;;8.63;6.97;;;;;;;17.03;82.19;96722.91;5054495;28;20088;-70
2023/06/23 01:46:12;;;;;;;7.88;7.13;;;;;;;16.93;83.22;96713.84;5054547;28;20049;-70
2023/06/23 01:48:45;;;;;;;7.72;6.85;;;;;;;16.89;83.13;96725.53;5054465;28;20132;-70
2023/06/23 01:51:13;;;;;;;7.53;6.82;;;;;;;16.86;82.85;96721.28;5054466;28;20127;-70
2023/06/23 01:53:43;;;;;;;7.45;6.43;;;;;;;16.79;83.08;96723.44;5054355;28;20395;-70
2023/06/23 01:56:11;;;;;;;12.23;7.10;;;;;;;16.77;83.58;96724.50;5054397;28;20041;-70
2023/06/23 01:58:40;;;;;;;9.25;7.68;;;;;;;16.74;84.92;96725.50;5054250;28;20055;-70
2023/06/23 02:01:11;;;;;;;8.27;7.43;;;;;;;16.77;85.10;96727.97;5054111;28;20041;-70
2023/06/23 02:03:40;;;;;;;9.35;8.32;;;;;;;16.80;85.12;96722.50;5054248;28;20041;-70
2023/06/23 02:06:08;;;;;;;8.40;7.15;;;;;;;16.83;84.71;96720.63;5054200;28;20392;-70
2023/06/23 02:08:37;;;;;;;8.48;7.63;;;;;;;16.80;84.81;96721.66;5054140;28;20099;-70
2023/06/23 02:11:07;;;;;;;9.75;7.00;;;;;;;16.81;84.78;96715.44;5054123;28;20084;-70
2023/06/23 02:13:35;;;;;;;8.20;7.40;;;;;;;16.83;84.60;96721.50;5053989;28;20178;-70
2023/06/23 02:16:03;;;;;;;8.75;7.90;;;;;;;16.85;84.79;96729.28;5053993;28;20049;-69
2023/06/23 02:18:35;;;;;;;8.60;6.78;;;;;;;16.86;84.56;96725.72;5053892;28;20080;-70
2023/06/23 02:21:04;;;;;;;8.98;7.93;;;;;;;16.88;84.52;96727.31;5053705;28;20140;-70
2023/06/23 02:23:31;;;;;;;9.57;7.05;;;;;;;16.80;84.47;96717.22;5053854;28;20049;-70
2023/06/23 02:25:59;;;;;;;11.95;8.10;;;;;;;16.88;84.38;96732.59;5053631;28;20503;-70
2023/06/23 02:28:27;;;;;;;13.05;7.10;;;;;;;16.87;84.40;96735.34;5054047;28;20056;-70
2023/06/23 02:30:56;;;;;;;8.82;6.68;;;;;;;16.83;84.14;96739.97;5053702;28;20049;-70
2023/06/23 02:33:23;;;;;;;7.55;6.55;;;;;;;16.82;83.88;96737.44;5053598;28;20130;-70
2023/06/23 02:35:57;;;;;;;8.20;7.40;;;;;;;16.80;83.86;96738.34;5053589;28;20053;-70
2023/06/23 02:38:27;;;;;;;10.10;7.50;;;;;;;16.75;83.96;96740.44;5053575;28;20049;-70
2023/06/23 02:40:56;;;;;;;13.50;8.10;;;;;;;16.77;84.73;96738.53;5053501;28;20049;-70
2023/06/23 02:43:29;;;;;;;7.97;7.10;;;;;;;16.78;84.67;96742.91;5053428;28;20052;-70
2023/06/23 02:46:01;;;;;;;9.13;7.05;;;;;;;16.73;84.64;96731.75;5053390;28;20107;-70
2023/06/23 02:48:35;;;;;;;8.93;7.05;;;;;;;16.69;84.85;96735.50;5053475;28;20383;-70
2023/06/23 02:51:05;;;;;;;7.65;6.93;;;;;;;16.72;85.05;96732.69;5053417;28;20110;-70
2023/06/23 02:53:36;;;;;;;11.15;7.50;;;;;;;16.73;84.87;96736.16;5053247;28;20498;-70
2023/06/23 02:56:07;;;;;;;9.48;8.18;;;;;;;16.72;85.01;96737.97;5053110;28;20426;-70
2023/06/23 02:58:35;;;;;;;8.85;7.95;;;;;;;16.65;85.15;96736.66;5053167;28;20095;-70
2023/06/23 03:01:05;;;;;;;12.18;8.20;;;;;;;16.68;86.61;96731.19;5053157;28;20511;-70
2023/06/23 03:03:35;;;;;;;12.00;6.60;;;;;;;16.72;86.78;96731.84;5053178;28;20102;-70
2023/06/23 03:06:06;;;;;;;7.68;6.95;;;;;;;16.73;85.36;96728.25;5053104;28;20052;-70
2023/06/23 03:08:33;;;;;;;8.30;6.82;;;;;;;16.74;85.24;96729.97;5053124;28;20053;-70
2023/06/23 03:11:00;;;;;;;11.88;8.05;;;;;;;16.76;85.51;96739.47;5053148;28;20475;-70
2023/06/23 03:13:27;;;;;;;13.98;7.75;;;;;;;16.81;85.58;96741.84;5053145;28;20056;-70
2023/06/23 03:16:00;;;;;;;8.98;7.53;;;;;;;16.87;85.56;96730.91;5052995;28;20067;-70
2023/06/23 03:18:33;;;;;;;8.18;7.38;;;;;;;16.91;85.57;96729.78;5053050;28;20095;-70
2023/06/23 03:21:04;;;;;;;10.63;7.95;;;;;;;16.91;85.67;96735.06;5053084;28;20535;-70
2023/06/23 03:23:38;;;;;;;9.43;7.30;;;;;;;16.97;85.98;96744.41;5053006;28;20133;-70
2023/06/23 03:26:07;;;;;;;8.20;7.40;;;;;;;17.05;86.12;96746.59;5053014;28;20531;-70
2023/06/23 03:28:37;;;;;;;9.45;7.55;;;;;;;17.12;86.25;96741.78;5053143;28;20075;-70
2023/06/23 03:31:09;;;;;;;8.48;7.68;;;;;;;17.25;86.71;96736.63;5053023;28;20083;-70
2023/06/23 03:46:05;;;;;;;8.20;7.43;;;;;;;19.21;78.97;96730.13;5111146;27;20380;-67
2023/06/23 03:48:37;;;;;;;8.82;7.88;;;;;;;19.39;78.27;96731.47;5110901;28;20127;-68
2023/06/23 03:51:05;;;;;;;6.95;6.13;;;;;;;19.70;77.42;96728.44;5110889;28;20473;-65
2023/06/23 03:53:35;;;;;;;8.85;7.90;;;;;;;19.96;75.40;96725.69;5110567;28;20131;-66
2023/06/23 03:56:04;;;;;;;8.45;7.00;;;;;;;20.18;74.13;96738.25;5110616;28;20052;-67
2023/06/23 03:58:32;;;;;;;9.40;6.70;;;;;;;20.40;72.62;96741.09;5110743;28;20135;-66
2023/06/23 04:01:04;;;;;;;7.63;6.82;;;;;;;20.63;71.87;96739.38;5110704;28;20485;-66
2023/06/23 04:03:34;;;;;;;7.90;7.10;;;;;;;20.90;71.38;96737.41;5110608;28;20480;-67
2023/06/23 04:06:05;;;;;;;7.60;6.50;;;;;;;21.17;70.87;96742.41;5110558;28;20478;-67
2023/06/23 04:08:34;;;;;;;8.00;7.20;;;;;;;21.36;70.37;96748.06;5110478;28;20048;-68
2023/06/23 04:11:03;;;;;;;8.88;6.88;;;;;;;21.62;69.09;96750.47;5110511;28;20073;-66
2023/06/23 04:13:32;;;;;;;8.77;6.47;;;;;;;21.78;67.94;96740.34;5110380;28;20044;-67
2023/06/23 04:16:03;;;;;;;8.35;6.55;;;;;;;21.95;68.30;96743.44;5110413;28;20039;-68
2023/06/23 04:18:32;;;;;;;7.03;6.32;;;;;;;22.20;67.73;96731.63;5110298;28;20096;-68
2023/06/23 04:21:03;;;;;;;8.35;6.72;;;;;;;22.56;66.82;96743.81;5110315;28;20052;-68
2023/06/23 04:23:33;;;;;;;8.73;5.82;;;;;;;22.92;65.82;96746.19;5110262;28;20055;-66
2023/06/23 04:26:02;;;;;;;6.57;5.97;;;;;;;23.23;64.95;96747.06;5110208;28;20048;-68
2023/06/23 04:28:33;;;;;;;9.57;5.43;;;;;;;23.53;64.02;96746.34;5110232;28;20084;-68
2023/06/23 04:31:06;;;;;;;5.93;5.30;;;;;;;23.88;64.29;96744.22;5110107;28;20044;-68
2023/06/23 04:33:33;;;;;;;6.28;5.72;;;;;;;24.20;62.59;96741.31;5109870;28;20481;-68
2023/06/23 04:36:07;;;;;;;7.85;6.40;;;;;;;24.52;61.57;96746.53;5109948;28;20044;-66
2023/06/23 04:38:38;;;;;;;10.27;6.35;;;;;;;24.80;61.13;96746.66;5109995;28;20043;-67
2023/06/23 04:41:11;;;;;;;8.30;5.85;;;;;;;25.05;60.67;96757.75;5109815;28;20051;-67
2023/06/23 04:43:42;;;;;;;9.23;6.00;;;;;;;25.27;57.96;96753.03;5109568;28;20048;-66
2023/06/23 04:46:16;;;;;;;6.43;5.82;;;;;;;25.52;58.88;96754.22;5100382;28;20052;-66
2023/06/23 04:48:48;;;;;;;6.95;5.78;;;;;;;25.83;58.62;96745.91;5096013;28;20048;-66
2023/06/23 04:51:18;;;;;;;6.72;5.88;;;;;;;26.13;57.58;96743.06;5096003;28;20056;-67
2023/06/23 04:53:53;;;;;;;9.98;5.68;;;;;;;26.39;57.07;96749.53;5095989;28;20048;-67
2023/06/23 04:56:24;;;;;;;5.88;5.38;;;;;;;26.66;57.68;96751.25;5095845;28;20047;-67
2023/06/23 04:58:55;;;;;;;6.82;5.30;;;;;;;26.95;56.75;96755.50;5095872;28;20126;-67
2023/06/23 05:01:26;;;;;;;12.85;5.93;;;;;;;27.19;55.85;96751.34;5095937;28;20101;-66
2023/06/23 05:03:55;;;;;;;6.03;5.35;;;;;;;27.46;55.54;96762.03;5095864;28;20051;-67
2023/06/23 05:06:23;;;;;;;6.40;5.80;;;;;;;27.77;53.97;96763.38;5095812;28;20450;-66
2023/06/23 05:08:52;;;;;;;6.38;5.78;;;;;;;28.08;53.81;96758.25;5095662;28;20584;-66
2023/06/23 05:11:21;;;;;;;6.72;5.43;;;;;;;28.35;52.59;96766.28;5095620;28;20051;-66
2023/06/23 05:13:50;;;;;;;7.03;6.43;;;;;;;28.58;49.67;96765.59;5095728;28;20056;-67
2023/06/23 05:16:19;;;;;;;7.65;6.65;;;;;;;28.75;49.79;96763.75;5095657;28;20044;-66
2023/06/23 05:18:49;;;;;;;7.40;6.70;;;;;;;28.97;50.02;96769.50;5095545;28;20454;-67
2023/06/23 05:21:19;;;;;;;9.18;8.00;;;;;;;29.05;48.48;96763.25;5095515;28;20044;-66
2023/06/23 05:23:47;;;;;;;12.45;7.97;;;;;;;29.20;46.81;96758.84;5095397;28;20044;-68
2023/06/23 05:26:16;;;;;;;7.63;6.93;;;;;;;29.35;47.41;96758.97;5095296;28;20052;-66
2023/06/23 05:28:46;;;;;;;7.28;6.57;;;;;;;29.59;46.48;96773.41;5095335;28;20396;-67
2023/06/23 05:31:15;;;;;;;9.20;6.40;;;;;;;29.84;45.45;96778.72;5095317;28;20040;-66
2023/06/23 05:33:45;;;;;;;7.45;6.10;;;;;;;30.07;44.83;96777.91;5095177;28;20115;-67
2023/06/23 05:36:17;;;;;;;9.15;6.05;;;;;;;30.22;44.28;96774.53;5095201;28;20108;-68
2023/06/23 05:38:47;;;;;;;8.40;5.72;;;;;;;30.40;43.53;96779.63;5095176;28;20119;-67
2023/06/23 05:41:15;;;;;;;5.82;4.88;;;;;;;30.61;42.97;96780.84;5095053;28;20052;-67
2023/06/23 05:43:43;;;;;;;5.95;5.32;;;;;;;30.70;42.96;96781.59;5094758;28;20044;-66
2023/06/23 05:46:14;;;;;;;7.32;5.50;;;;;;;30.81;42.73;96781.19;5095090;28;20072;-66
2023/06/23 05:48:47;;;;;;;8.48;5.47;;;;;;;30.96;41.86;96789.34;5095034;28;20048;-67
2023/06/23 05:51:20;;;;;;;7.07;4.85;;;;;;;31.12;41.82;96782.94;5094948;28;20055;-67
2023/06/23 05:53:52;;;;;;;7.40;5.68;;;;;;;31.33;41.89;96794.06;5094762;28;20125;-66
2023/06/23 05:56:24;;;;;;;6.75;5.32;;;;;;;31.45;40.89;96789.06;5094634;28;20054;-66
2023/06/23 05:58:57;;;;;;;8.48;5.40;;;;;;;31.50;41.68;96789.34;5094018;28;20044;-68
2023/06/23 06:01:28;;;;;;;6.05;5.45;;;;;;;31.61;41.56;96788.91;5094700;28;20408;-66
2023/06/23 06:04:05;;;;;;;8.93;6.40;;;;;;;31.73;41.00;96788.41;5094608;28;20052;-66
2023/06/23 06:06:36;;;;;;;6.82;6.10;;;;;;;31.93;40.22;96782.47;5094587;28;20040;-66
2023/06/23 06:09:05;;;;;;;7.43;5.55;;;;;;;32.02;40.74;96789.41;5094635;28;20044;-69
2023/06/23 06:11:34;;;;;;;6.35;5.72;;;;;;;32.10;38.90;96793.88;5094433;28;20105;-67
2023/06/23 06:14:03;;;;;;;9.40;6.05;;;;;;;32.19;38.84;96781.09;5094420;28;20050;-68
2023/06/23 06:16:32;;;;;;;7.07;6.40;;;;;;;32.25;38.14;96785.72;5094375;28;20497;-66
2023/06/23 06:19:01;;;;;;;6.80;5.38;;;;;;;32.35;39.07;96783.56;5094395;28;20500;-68
2023/06/23 06:21:32;;;;;;;6.70;5.83;;;;;;;32.45;38.53;96790.53;5094291;28;20050;-66
2023/06/23 06:24:03;;;;;;;8.88;6.18;;;;;;;32.48;39.28;96791.00;5094270;28;20052;-67
2023/06/23 06:26:31;;;;;;;8.50;6.10;;;;;;;32.31;37.70;96793.09;5094256;28;20048;-68
2023/06/23 06:28:59;;;;;;;6.63;5.85;;;;;;;32.26;38.28;96790.09;5094089;28;20101;-68
2023/06/23 06:31:29;;;;;;;8.75;6.10;;;;;;;32.31;38.93;96779.56;5094152;28;20059;-66
2023/06/23 06:34:00;;;;;;;6.82;6.10;;;;;;;32.50;38.21;96771.84;5094146;28;20048;-67
2023/06/23 06:36:30;;;;;;;9.02;5.95;;;;;;;32.70;38.26;96774.78;5094007;28;20058;-66
2023/06/23 06:38:59;;;;;;;9.88;5.60;;;;;;;32.86;37.54;96772.81;5094065;28;20122;-66
2023/06/23 06:41:29;;;;;;;7.63;5.95;;;;;;;32.86;37.83;96780.94;5093921;28;20079;-66
2023/06/23 06:43:57;;;;;;;8.60;6.25;;;;;;;32.76;37.70;96773.16;5093736;28;20052;-67
2023/06/23 06:46:26;;;;;;;7.78;6.15;;;;;;;32.65;38.88;96775.34;5093898;28;20482;-66
2023/06/23 06:48:54;;;;;;;10.35;6.05;;;;;;;32.67;37.70;96777.03;5093840;28;20556;-68
2023/06/23 06:51:22;;;;;;;6.63;6.03;;;;;;;32.81;38.17;96767.16;5093744;28;20072;-67
2023/06/23 06:53:49;;;;;;;7.20;6.50;;;;;;;33.04;37.48;96769.66;5093747;28;20482;-67
2023/06/23 06:56:17;;;;;;;9.18;6.18;;;;;;;33.11;38.21;96770.53;5093663;28;20097;-66
2023/06/23 06:58:46;;;;;;;6.40;5.80;;;;;;;33.03;37.68;96766.09;5093764;28;20378;-68
2023/06/23 07:01:14;;;;;;;9.95;6.80;;;;;;;33.02;37.37;96766.28;5093716;28;20104;-67
2023/06/23 07:03:42;;;;;;;9.85;6.07;;;;;;;32.94;36.29;96756.44;5093595;28;20048;-67
2023/06/23 07:06:10;;;;;;;8.60;6.03;;;;;;;32.95;39.37;96765.41;5093475;28;20058;-67
2023/06/23 07:08:38;;;;;;;13.07;6.50;;;;;;;33.13;37.15;96770.34;5093470;28;20126;-65
2023/06/23 07:11:05;;;;;;;8.07;6.07;;;;;;;33.26;36.89;96767.72;5093422;28;20125;-67
2023/06/23 07:13:32;;;;;;;6.63;6.00;;;;;;;33.35;36.47;96771.13;5093565;28;20044;-68
2023/06/23 07:16:01;;;;;;;9.23;6.88;;;;;;;33.44;38.11;96773.69;5093360;28;20056;-68
2023/06/23 07:18:28;;;;;;;8.38;6.32;;;;;;;33.62;36.48;96768.59;5093447;28;20378;-67
2023/06/23 07:20:55;;;;;;;9.93;6.05;;;;;;;33.65;36.17;96765.50;5093504;28;20051;-66
2023/06/23 07:23:23;;;;;;;8.73;6.05;;;;;;;33.74;37.23;96765.34;5093461;28;20087;-67
2023/06/23 07:25:50;;;;;;;10.25;6.05;;;;;;;33.85;35.64;96763.91;5093408;28;20101;-68
2023/06/23 07:28:20;;;;;;;8.15;5.70;;;;;;;33.92;34.90;96764.78;5093386;28;20101;-69
2023/06/23 07:30:47;;;;;;;6.60;5.88;;;;;;;34.06;35.80;96770.22;5093368;28;20052;-68
2023/06/23 07:33:15;;;;;;;13.63;5.85;;;;;;;34.05;35.76;96774.84;5093334;28;20055;-67
2023/06/23 07:35:43;;;;;;;7.38;5.32;;;;;;;34.06;36.04;96781.09;5093053;28;20130;-67
2023/06/23 07:38:10;;;;;;;14.38;6.10;;;;;;;34.06;34.77;96775.66;5093135;28;20047;-67
2023/06/23 07:40:37;;;;;;;7.60;5.47;;;;;;;34.18;36.17;96768.66;5093211;28;20044;-69
2023/06/23 07:43:04;;;;;;;8.98;5.93;;;;;;;33.97;34.77;96767.72;5093098;28;20071;-68
2023/06/23 07:45:31;;;;;;;6.78;6.03;;;;;;;33.80;36.59;96758.25;5092965;28;20052;-67
2023/06/23 07:47:58;;;;;;;9.60;5.60;;;;;;;33.83;34.22;96766.00;5093049;28;20066;-67
2023/06/23 07:50:27;;;;;;;8.10;5.50;;;;;;;33.91;36.12;96763.09;5093140;28;20079;-67
2023/06/23 07:52:55;;;;;;;8.00;5.57;;;;;;;34.14;37.78;96762.81;5093141;28;20104;-68
2023/06/23 07:55:22;;;;;;;6.95;5.45;;;;;;;34.31;35.98;96762.41;5093043;28;20131;-68
2023/06/23 07:57:49;;;;;;;5.57;4.85;;;;;;;34.31;34.24;96761.59;5093166;28;20056;-66
2023/06/23 08:00:18;;;;;;;7.40;5.32;;;;;;;34.34;35.95;96753.88;5093086;28;20044;-68
2023/06/23 08:02:45;;;;;;;10.35;6.30;;;;;;;34.39;35.79;96762.25;5092929;28;20410;-68
2023/06/23 08:05:12;;;;;;;8.07;5.32;;;;;;;34.26;35.26;96751.34;5092818;28;20079;-67
2023/06/23 08:07:40;;;;;;;7.38;5.53;;;;;;;34.25;36.34;96749.69;5092984;28;20040;-68
2023/06/23 08:10:08;;;;;;;5.95;5.35;;;;;;;34.29;36.60;96753.66;5092883;28;20493;-68
2023/06/23 08:12:37;;;;;;;9.68;5.90;;;;;;;34.11;36.58;96746.06;5092812;28;20079;-67
2023/06/23 08:15:05;;;;;;;7.90;5.45;;;;;;;34.20;37.53;96744.88;5092841;28;20044;-67
2023/06/23 08:17:32;;;;;;;8.60;6.38;;;;;;;34.18;36.55;96746.94;5092827;28;20044;-68
2023/06/23 08:19:59;;;;;;;14.90;6.25;;;;;;;34.23;36.44;96743.63;5092890;28;20048;-68
2023/06/23 08:22:26;;;;;;;8.10;6.00;;;;;;;34.32;36.75;96746.97;5096580;28;20401;-67
2023/06/23 08:24:55;;;;;;;9.73;5.72;;;;;;;34.17;36.19;96750.72;5096538;28;20047;-68
2023/06/23 08:27:22;;;;;;;12.10;6.30;;;;;;;34.28;36.69;96749.28;5096530;28;20048;-69
2023/06/23 08:29:49;;;;;;;7.05;6.03;;;;;;;34.37;35.71;96747.22;5096458;28;20044;-68
2023/06/23 08:32:17;;;;;;;7.30;6.53;;;;;;;34.31;36.38;96748.03;5096539;28;20066;-69
2023/06/23 08:34:44;;;;;;;6.70;6.10;;;;;;;34.19;35.64;96742.38;5096360;28;20091;-68
2023/06/23 08:37:11;;;;;;;7.68;5.78;;;;;;;33.98;36.69;96747.69;5096324;28;20051;-68
2023/06/23 08:39:38;;;;;;;7.72;6.43;;;;;;;33.76;36.30;96739.69;5096432;28;20116;-69
2023/06/23 08:42:08;;;;;;;7.93;6.30;;;;;;;33.86;36.25;96738.47;5096173;28;20051;-68
2023/06/23 08:44:37;;;;;;;8.55;5.65;;;;;;;33.94;36.74;96729.31;5095933;28;20048;-67
2023/06/23 08:47:07;;;;;;;7.30;5.45;;;;;;;33.91;37.48;96730.56;5096072;28;20485;-69
2023/06/23 08:49:38;;;;;;;6.53;5.93;;;;;;;34.08;36.43;96730.19;5096109;28;20078;-68
2023/06/23 08:52:06;;;;;;;9.25;6.25;;;;;;;34.13;35.85;96728.56;5096115;28;20052;-68
2023/06/23 08:54:34;;;;;;;7.60;5.78;;;;;;;33.98;35.51;96725.97;5095975;28;20044;-67
2023/06/23 08:57:01;;;;;;;6.70;6.10;;;;;;;33.95;37.04;96723.69;5096021;28;20048;-68
2023/06/23 08:59:30;;;;;;;7.82;6.22;;;;;;;33.65;34.22;96724.00;5096066;28;20047;-67
2023/06/23 09:01:58;;;;;;;8.48;6.10;;;;;;;33.39;38.92;96723.66;5095935;28;20048;-68
2023/06/23 09:04:24;;;;;;;6.70;6.00;;;;;;;33.42;36.80;96722.41;5095838;28;20486;-68
2023/06/23 09:06:52;;;;;;;15.25;6.15;;;;;;;33.20;34.87;96721.66;5095814;28;20048;-67
2023/06/23 09:09:20;;;;;;;10.48;6.72;;;;;;;32.99;35.80;96723.34;5095796;28;20052;-68
2023/06/23 09:11:47;;;;;;;8.25;6.00;;;;;;;32.82;36.97;96717.38;5095749;28;20109;-67
2023/06/23 09:14:15;;;;;;;7.85;5.32;;;;;;;32.59;40.59;96711.16;5095737;28;20039;-67
2023/06/23 09:16:43;;;;;;;7.22;5.95;;;;;;;32.73;39.02;96711.28;5095541;28;20568;-68
2023/06/23 09:19:12;;;;;;;8.00;6.28;;;;;;;32.88;40.20;96711.19;5095598;28;20132;-68
2023/06/23 09:21:42;;;;;;;7.65;6.78;;;;;;;32.52;38.88;96716.53;5095467;28;20420;-67
2023/06/23 09:24:10;;;;;;;6.90;6.30;;;;;;;32.53;39.35;96709.22;5095463;28;20043;-68
2023/06/23 09:26:49;;;;;;;9.02;6.53;;;;;;;32.78;39.69;96717.78;5095388;28;20044;-68
2023/06/23 09:29:18;;;;;;;11.90;6.95;;;;;;;32.87;39.36;96720.34;5095438;28;20474;-67
2023/06/23 09:31:49;;;;;;;8.32;5.93;;;;;;;33.01;39.29;96719.41;5095407;28;20130;-69
2023/06/23 09:34:23;;;;;;;10.90;6.60;;;;;;;32.98;39.33;96718.94;5095261;28;20090;-68
2023/06/23 09:36:52;;;;;;;8.15;6.38;;;;;;;33.17;39.18;96712.06;5095173;28;20051;-68
2023/06/23 09:39:19;;;;;;;6.97;6.25;;;;;;;33.10;37.96;96721.97;5095236;28;20044;-68
2023/06/23 09:41:48;;;;;;;9.30;6.30;;;;;;;33.09;39.87;96718.44;5095177;28;20044;-68
2023/06/23 09:44:15;;;;;;;6.68;6.07;;;;;;;33.11;40.66;96723.69;5094777;28;20052;-69
2023/06/23 09:46:43;;;;;;;7.05;6.38;;;;;;;32.97;37.26;96718.13;5095072;28;20047;-68
2023/06/23 09:49:11;;;;;;;8.10;6.35;;;;;;;32.85;37.10;96714.28;5094947;28;20048;-68
2023/06/23 09:51:46;;;;;;;9.20;6.28;;;;;;;32.89;40.17;96712.84;5094867;28;20127;-68
2023/06/23 09:54:13;;;;;;;6.20;5.60;;;;;;;32.87;39.26;96709.53;5094851;28;20040;-68
2023/06/23 09:56:40;;;;;;;7.32;6.70;;;;;;;32.85;37.97;96707.00;5094829;28;20055;-69
2023/06/23 09:59:07;;;;;;;7.43;6.28;;;;;;;32.78;38.28;96708.84;5094794;28;20105;-68
2023/06/23 10:01:37;;;;;;;9.20;6.53;;;;;;;32.76;40.11;96703.63;5094760;28;20048;-68
2023/06/23 10:04:04;;;;;;;7.85;6.30;;;;;;;32.84;42.28;96705.31;5094662;28;20050;-68
2023/06/23 10:06:37;;;;;;;9.52;6.53;;;;;;;32.47;36.65;96697.28;5094621;28;20127;-69
2023/06/23 10:09:07;;;;;;;9.77;6.18;;;;;;;32.42;39.84;96699.75;5094641;28;20048;-69
2023/06/23 10:11:35;;;;;;;;;;;;;;;32.25;38.43;96702.72;5094916;28;20044;-68
2023/06/23 10:14:05;;;;;;;7.53;6.78;;;;;;;32.01;39.78;96690.41;5094499;28;19967;-69
2023/06/23 10:16:33;;;;;;;7.78;6.93;;;;;;;31.91;42.83;96693.41;5094378;28;20082;-68
2023/06/23 10:19:00;;;;;;;7.45;6.68;;;;;;;31.54;39.24;96685.25;5094498;28;20564;-68
2023/06/23 10:21:29;;;;;;;8.98;6.35;;;;;;;31.51;40.29;96697.28;5094348;28;20076;-68
2023/06/23 10:23:59;;;;;;;10.18;6.13;;;;;;;31.60;42.88;96687.22;5094442;28;20128;-68
2023/06/23 10:26:29;;;;;;;6.85;6.25;;;;;;;31.36;39.73;96689.19;5094215;28;20051;-68
2023/06/23 10:28:58;;;;;;;8.93;6.65;;;;;;;31.23;39.72;96681.72;5094256;28;20044;-68
2023/06/23 10:31:30;;;;;;;7.35;6.65;;;;;;;31.26;38.85;96673.25;5094228;28;20052;-68
2023/06/23 10:34:00;;;;;;;7.57;6.85;;;;;;;31.26;41.56;96675.94;5094079;28;20052;-67
2023/06/23 10:36:31;;;;;;;6.82;6.13;;;;;;;31.19;39.64;96680.44;5093972;28;20101;-67
2023/06/23 10:39:02;;;;;;;7.72;6.60;;;;;;;31.38;39.92;96673.66;5094129;28;20123;-67
2023/06/23 10:41:29;;;;;;;;;;;;;;;31.48;40.54;96665.22;5094414;28;20044;-68
2023/06/23 10:43:57;;;;;;;10.15;6.65;;;;;;;31.55;39.59;96665.34;5093320;28;19989;-68
2023/06/23 10:46:24;;;;;;;7.22;6.35;;;;;;;31.72;40.30;96674.03;5093991;28;20055;-68
2023/06/23 10:48:52;;;;;;;13.00;7.05;;;;;;;31.77;40.30;96668.06;5093827;28;20059;-68
2023/06/23 10:51:20;;;;;;;8.23;6.78;;;;;;;31.91;40.27;96669.06;5093874;28;20563;-67
2023/06/23 10:53:57;;;;;;;6.72;6.03;;;;;;;31.98;38.41;96670.00;5093741;28;20051;-67
2023/06/23 10:56:33;;;;;;;7.07;5.97;;;;;;;32.21;36.54;96660.88;5093599;28;20135;-68
2023/06/23 10:59:00;;;;;;;8.45;6.38;;;;;;;32.35;39.03;96663.69;5093651;28;20083;-68
2023/06/23 11:01:28;;;;;;;6.60;5.95;;;;;;;32.39;39.70;96665.78;5093715;28;20475;-68
2023/06/23 11:04:03;;;;;;;6.75;6.05;;;;;;;32.28;39.90;96655.50;5093629;28;20055;-68
2023/06/23 11:06:37;;;;;;;7.50;6.13;;;;;;;32.38;39.28;96657.88;5093685;28;20048;-68
2023/06/23 11:09:04;;;;;;;8.82;6.30;;;;;;;32.34;39.78;96660.13;5093452;28;20105;-68
2023/06/23 11:11:35;;;;;;;10.15;6.78;;;;;;;32.46;39.22;96652.34;5093410;28;20080;-68
2023/06/23 11:14:02;;;;;;;7.43;6.57;;;;;;;32.44;39.07;96657.09;5093423;28;20056;-68
2023/06/23 11:16:34;;;;;;;9.85;6.78;;;;;;;32.39;37.36;96646.03;5093509;28;20094;-68
2023/06/23 11:19:02;;;;;;;6.90;6.22;;;;;;;32.51;37.68;96649.88;5093451;28;20052;-68
2023/06/23 11:21:34;;;;;;;8.20;6.22;;;;;;;32.65;38.44;96647.28;5093427;28;20052;-68
2023/06/23 11:24:21;;;;;;;6.82;6.22;;;;;;;32.60;38.54;96647.06;5093406;28;20044;-68
2023/06/23 11:26:55;;;;;;;6.38;5.78;;;;;;;32.23;39.28;96636.34;5090205;28;20548;-68
2023/06/23 11:29:24;;;;;;;6.60;6.00;;;;;;;31.92;35.32;96642.84;5093269;28;20056;-67
2023/06/23 11:32:08;;;;;;;7.03;6.32;;;;;;;31.61;36.68;96636.72;5093292;28;20477;-68
2023/06/23 11:34:52;;;;;;;8.50;6.00;;;;;;;31.70;37.91;96637.44;5093322;28;20063;-68
2023/06/23 11:37:20;;;;;;;6.95;6.32;;;;;;;31.84;39.20;96630.31;5093309;28;20044;-67
2023/06/23 11:39:47;;;;;;;10.35;5.90;;;;;;;31.76;34.59;96629.38;5093290;28;20109;-68
2023/06/23 11:42:15;;;;;;;8.60;5.45;;;;;;;31.55;36.07;96632.91;5093206;28;20048;-67
2023/06/23 11:44:42;;;;;;;8.25;6.38;;;;;;;31.38;36.28;96622.31;5092817;28;20048;-67
2023/06/23 11:47:09;;;;;;;5.70;5.20;;;;;;;31.44;39.07;96626.13;5093201;28;20040;-68
2023/06/23 11:49:37;;;;;;;6.68;5.80;;;;;;;31.61;38.91;96617.78;5093077;28;20052;-69
2023/06/23 11:52:05;;;;;;;6.10;5.40;;;;;;;31.76;37.33;96618.56;5093103;28;20044;-69
2023/06/23 11:54:35;;;;;;;9.50;6.30;;;;;;;31.85;35.08;96626.56;5093110;28;20052;-68